Time;durP1;ratioP1;P1;durP2;ratioP2;P2;SDS_P1;SDS_P2;PMS_P1;PMS_P2;Temp;Humidity;BMP_temperature;BMP_pressure;BME280_temperature;BME280_humidity;BME280_pressure;Samples;Min_cycle;Max_cycle;Signal;HPM_P1;HPM_P2
2022/06/18 00:01:34;;;;;;;3.85;3.20;;;;;;;22.61;65.57;101723.44;5033472;28;20025;-52
2022/06/18 00:04:08;;;;;;;6.03;3.25;;;;;;;22.52;66.50;101720.16;5035512;28;20054;-51
2022/06/18 00:06:51;;;;;;;9.63;4.25;;;;;;;22.49;67.49;101720.59;5036280;28;20543;-50
2022/06/18 00:09:20;;;;;;;6.32;3.33;;;;;;;22.53;66.10;101723.69;5037086;28;20033;-48
2022/06/18 00:14:33;;;;;;;7.80;2.67;;;;;;;22.55;65.52;101721.59;5020735;28;20052;-48
2022/06/18 00:16:58;;;;;;;7.22;3.03;;;;;;;22.43;65.68;101723.34;5030970;28;20208;-50
2022/06/18 00:19:23;;;;;;;9.13;3.10;;;;;;;22.33;66.20;101721.09;5030389;28;20373;-48
2022/06/18 00:21:50;;;;;;;6.32;3.00;;;;;;;22.24;66.62;101717.78;5036044;28;20051;-50
2022/06/18 00:24:19;;;;;;;8.80;3.10;;;;;;;22.14;66.66;101715.50;5001572;28;20052;-51
2022/06/18 00:26:44;;;;;;;7.75;3.30;;;;;;;22.12;67.02;101717.63;5018225;28;20369;-52
2022/06/18 00:29:15;;;;;;;6.13;2.90;;;;;;;22.08;67.38;101712.81;5023149;28;20028;-51
2022/06/18 00:31:41;;;;;;;7.47;3.10;;;;;;;22.11;67.32;101718.66;5036728;28;20260;-52
2022/06/18 00:34:06;;;;;;;7.25;3.13;;;;;;;22.02;67.96;101711.81;5033902;28;20039;-50
2022/06/18 00:36:31;;;;;;;5.43;2.78;;;;;;;21.95;69.15;101714.56;5024834;28;20029;-50
2022/06/18 00:38:57;;;;;;;11.05;3.10;;;;;;;22.01;68.11;101712.03;5011945;28;20434;-51
2022/06/18 00:41:25;;;;;;;8.65;3.20;;;;;;;21.94;68.47;101715.59;5006284;28;20054;-52
2022/06/18 00:44:07;;;;;;;5.78;3.00;;;;;;;21.90;68.21;101718.97;5031029;28;20027;-49
2022/06/18 00:46:47;;;;;;;8.40;3.20;;;;;;;21.89;68.24;101714.59;5025330;28;20509;-51
2022/06/18 00:49:25;;;;;;;5.50;3.30;;;;;;;21.82;69.38;101705.63;5029905;28;20448;-52
2022/06/18 00:51:57;;;;;;;7.53;3.10;;;;;;;21.77;70.24;101717.97;5030498;28;20379;-51
2022/06/18 00:54:33;;;;;;;10.18;3.63;;;;;;;21.75;70.62;101706.47;5027043;28;20124;-48
2022/06/18 00:57:08;;;;;;;8.30;3.25;;;;;;;21.70;71.38;101706.28;5029722;28;20291;-50
2022/06/18 00:59:38;;;;;;;8.63;3.33;;;;;;;21.65;71.15;101706.09;5034111;28;20499;-53
2022/06/18 01:02:06;;;;;;;16.43;3.33;;;;;;;21.65;71.71;101700.66;5024595;28;20288;-53
2022/06/18 01:04:34;;;;;;;6.28;3.25;;;;;;;21.68;71.31;101699.41;5029718;28;20036;-52
2022/06/18 01:07:03;;;;;;;5.82;3.30;;;;;;;21.64;71.90;101703.56;5030019;28;20032;-50
2022/06/18 01:09:30;;;;;;;6.55;3.25;;;;;;;21.64;71.77;101704.44;5047335;28;20020;-52
2022/06/18 01:11:56;;;;;;;6.38;3.25;;;;;;;21.68;71.41;101699.41;5031437;28;20047;-52
2022/06/18 01:14:24;;;;;;;7.70;3.33;;;;;;;21.58;71.92;101700.66;5033746;28;20104;-51
2022/06/18 01:16:50;;;;;;;8.57;3.55;;;;;;;21.57;72.18;101693.56;5026328;28;20083;-50
2022/06/18 01:19:39;;;;;;;6.57;3.50;;;;;;;21.50;71.42;101698.19;5029882;28;20103;-51
2022/06/18 01:22:32;;;;;;;4.75;3.35;;;;;;;21.43;72.54;101681.88;5029090;28;20255;-49
2022/06/18 01:24:57;;;;;;;7.05;3.53;;;;;;;21.37;73.56;101687.34;5028709;28;20041;-51
2022/06/18 01:27:23;;;;;;;7.60;3.63;;;;;;;21.37;73.81;101687.34;5031784;28;20013;-51
2022/06/18 01:29:48;;;;;;;8.05;3.88;;;;;;;21.35;74.00;101687.53;5030469;28;20045;-52
2022/06/18 01:32:16;;;;;;;8.98;3.90;;;;;;;21.32;75.49;101682.53;5032404;28;20033;-51
2022/06/18 01:34:42;;;;;;;8.25;4.10;;;;;;;21.32;74.55;101681.69;5021583;28;20554;-50
2022/06/18 01:37:08;;;;;;;8.88;4.00;;;;;;;21.29;74.52;101691.09;5023032;28;20028;-49
2022/06/18 01:39:38;;;;;;;7.50;3.85;;;;;;;21.29;75.37;101693.00;5031055;28;20621;-49
2022/06/18 01:42:24;;;;;;;8.40;3.73;;;;;;;21.27;75.02;101687.75;5031269;28;20037;-48
2022/06/18 01:44:53;;;;;;;11.48;4.32;;;;;;;21.21;74.77;101681.28;5024109;28;20028;-50
2022/06/18 01:47:29;;;;;;;6.72;4.43;;;;;;;21.14;74.79;101685.06;5025752;28;20033;-47
2022/06/18 01:50:07;;;;;;;7.43;4.28;;;;;;;21.04;75.90;101680.06;5030312;28;20056;-50
2022/06/18 01:52:38;;;;;;;9.75;4.38;;;;;;;21.01;76.19;101680.47;5018879;28;20116;-50
2022/06/18 01:55:11;;;;;;;8.25;4.35;;;;;;;21.00;76.01;101673.38;5029185;28;20033;-49
2022/06/18 01:57:43;;;;;;;9.73;4.20;;;;;;;21.04;76.38;101675.47;5030044;28;20024;-51
2022/06/18 02:00:13;;;;;;;8.07;3.90;;;;;;;21.03;76.47;101678.41;5030012;28;20026;-51
2022/06/18 02:02:39;;;;;;;8.57;4.68;;;;;;;21.05;76.35;101682.56;5028737;28;20140;-48
2022/06/18 02:05:07;;;;;;;9.68;4.68;;;;;;;20.99;76.40;101677.97;5029692;28;20032;-51
2022/06/18 02:07:33;;;;;;;12.18;4.78;;;;;;;20.99;76.90;101677.97;5023453;28;20116;-51
2022/06/18 02:10:07;;;;;;;9.90;4.43;;;;;;;20.99;77.02;101674.41;5022043;28;20029;-49
2022/06/18 02:12:36;;;;;;;7.47;4.78;;;;;;;20.94;77.12;101676.94;5030887;28;20040;-48
2022/06/18 02:15:14;;;;;;;12.02;4.97;;;;;;;20.86;77.06;101662.53;5029312;28;20025;-50
2022/06/18 02:17:40;;;;;;;10.18;4.72;;;;;;;20.88;78.08;101666.91;5014592;28;20134;-50
2022/06/18 02:20:10;;;;;;;6.85;4.85;;;;;;;20.85;78.32;101671.69;5031404;28;20017;-51
2022/06/18 02:22:41;;;;;;;13.25;5.00;;;;;;;20.79;78.64;101669.00;5030714;28;20637;-50
2022/06/18 02:25:08;;;;;;;8.55;4.93;;;;;;;20.77;79.13;101666.47;5026659;28;20018;-51
2022/06/18 02:27:34;;;;;;;11.93;5.00;;;;;;;20.75;79.66;101662.31;5027533;28;20109;-52
2022/06/18 02:30:00;;;;;;;10.63;5.28;;;;;;;20.72;79.86;101662.72;5030985;28;20044;-51
2022/06/18 02:32:54;;;;;;;10.05;5.20;;;;;;;20.75;79.05;101662.31;5029820;28;20066;-51
2022/06/18 02:35:19;;;;;;;11.45;5.50;;;;;;;20.63;80.39;101651.25;5008204;28;20500;-51
2022/06/18 02:37:45;;;;;;;10.93;5.57;;;;;;;20.66;81.00;101661.69;5031003;28;20053;-49
2022/06/18 02:40:20;;;;;;;10.63;5.70;;;;;;;20.61;81.02;101656.03;5032661;28;20082;-50
2022/06/18 02:42:47;;;;;;;16.77;5.90;;;;;;;20.58;81.20;101659.97;5017369;28;20033;-52
2022/06/18 02:45:13;;;;;;;11.20;5.90;;;;;;;20.55;81.94;101656.84;5029857;28;20762;-48
2022/06/18 02:47:39;;;;;;;10.70;6.32;;;;;;;20.51;81.71;101664.56;5027212;28;20457;-49
2022/06/18 02:50:09;;;;;;;16.75;6.00;;;;;;;20.49;82.44;101659.34;5030465;28;20078;-50
2022/06/18 02:52:39;;;;;;;12.00;6.10;;;;;;;20.50;82.02;101665.59;5024876;28;20119;-47
2022/06/18 02:55:25;;;;;;;10.75;6.45;;;;;;;20.49;82.47;101672.91;5024972;28;20024;-51
2022/06/18 02:57:56;;;;;;;12.30;6.30;;;;;;;20.47;83.64;101671.47;5029695;28;20021;-48
2022/06/18 03:00:22;;;;;;;14.25;6.82;;;;;;;20.46;84.79;101667.06;5034196;28;20368;-51
2022/06/18 03:02:47;;;;;;;11.93;6.32;;;;;;;20.45;83.80;101666.25;5033810;28;20037;-52
2022/06/18 03:05:25;;;;;;;11.15;6.20;;;;;;;20.47;84.01;101664.16;5030446;28;20104;-49
2022/06/18 03:07:51;;;;;;;11.90;6.20;;;;;;;20.43;83.93;101662.03;5017502;28;20028;-50
2022/06/18 03:13:01;;;;;;;12.65;6.22;;;;;;;20.42;84.25;101669.38;5017405;28;20099;-51
2022/06/18 03:15:27;;;;;;;14.68;6.53;;;;;;;20.44;84.10;101667.28;5010807;28;20014;-50
2022/06/18 03:17:52;;;;;;;15.73;6.47;;;;;;;20.44;85.37;101672.69;5016205;28;20018;-49
2022/06/18 03:20:21;;;;;;;16.27;6.55;;;;;;;20.44;84.13;101664.56;5016670;28;20455;-48
2022/06/18 03:22:48;;;;;;;17.73;6.88;;;;;;;20.37;86.60;101669.16;5015523;28;20067;-51
2022/06/18 03:25:13;;;;;;;15.27;6.50;;;;;;;20.33;85.11;101667.88;5015425;28;20582;-50
2022/06/18 03:27:39;;;;;;;13.32;6.88;;;;;;;20.33;85.12;101676.00;5011465;28;20120;-50
2022/06/18 03:30:05;;;;;;;16.40;7.03;;;;;;;20.26;86.42;101669.75;5017406;28;20049;-51
2022/06/18 03:32:32;;;;;;;17.17;6.88;;;;;;;20.31;84.27;101678.94;5020707;28;20052;-51
2022/06/18 03:34:57;;;;;;;17.10;6.90;;;;;;;20.34;83.99;101674.97;5016071;28;20068;-51
2022/06/18 03:37:23;;;;;;;13.77;6.95;;;;;;;20.30;85.06;101684.59;5015742;28;20483;-51
2022/06/18 03:39:48;;;;;;;17.63;7.18;;;;;;;20.26;85.87;101683.31;5017373;28;20052;-48
2022/06/18 03:42:13;;;;;;;16.52;6.47;;;;;;;20.28;83.48;101675.78;5017119;28;20029;-52
2022/06/18 03:44:39;;;;;;;11.07;7.00;;;;;;;20.27;84.52;101690.41;5017369;28;20017;-51
2022/06/18 03:47:05;;;;;;;15.32;6.57;;;;;;;20.24;84.73;101688.94;5013669;28;20375;-51
2022/06/18 03:49:33;;;;;;;12.23;6.78;;;;;;;20.27;82.83;101674.13;5015642;28;20025;-50
2022/06/18 03:51:59;;;;;;;17.25;6.88;;;;;;;20.29;83.46;101680.19;5016372;28;20032;-50
2022/06/18 03:54:24;;;;;;;10.25;6.43;;;;;;;20.30;82.87;101682.69;5016544;28;20029;-50
2022/06/18 03:56:50;;;;;;;13.98;7.00;;;;;;;20.26;83.46;101677.88;5015180;28;20429;-50
2022/06/18 03:59:16;;;;;;;14.90;7.22;;;;;;;20.19;83.84;101677.84;5017217;28;20053;-51
2022/06/18 04:01:41;;;;;;;11.60;6.80;;;;;;;20.20;83.64;101679.53;5015898;28;20108;-52
2022/06/18 04:04:11;;;;;;;12.07;6.95;;;;;;;20.22;83.42;101672.03;5015210;28;20108;-50
2022/06/18 04:06:38;;;;;;;18.30;6.97;;;;;;;20.17;83.40;101674.53;5016403;28;20750;-50
2022/06/18 04:09:05;;;;;;;11.30;6.88;;;;;;;20.13;84.89;101668.66;5015652;28;20033;-51
2022/06/18 04:11:30;;;;;;;13.75;7.10;;;;;;;20.17;83.58;101666.38;5016808;28;20075;-51
2022/06/18 04:13:56;;;;;;;15.55;7.18;;;;;;;20.21;83.29;101661.38;5017501;28;20021;-52
2022/06/18 04:16:21;;;;;;;16.83;6.95;;;;;;;20.19;83.12;101663.47;5012004;28;20487;-51
2022/06/18 04:18:46;;;;;;;14.13;6.97;;;;;;;20.13;84.09;101663.25;5014731;28;20087;-54
2022/06/18 04:21:12;;;;;;;13.73;7.07;;;;;;;20.17;83.69;101658.25;5017421;28;20037;-52
2022/06/18 04:23:38;;;;;;;12.30;7.32;;;;;;;20.17;83.16;101658.25;5016527;28;20036;-51
2022/06/18 04:26:05;;;;;;;12.55;7.60;;;;;;;20.20;82.87;101667.88;5011052;28;20061;-52
2022/06/18 04:28:30;;;;;;;12.23;7.18;;;;;;;20.24;83.64;101656.38;5013270;28;20105;-49
2022/06/18 04:30:55;;;;;;;19.80;7.28;;;;;;;20.30;83.32;101654.75;5016488;28;20073;-48
2022/06/18 04:33:21;;;;;;;17.77;7.65;;;;;;;20.35;81.97;101660.38;5014831;28;20030;-51
2022/06/18 04:35:52;;;;;;;16.33;7.38;;;;;;;20.40;82.26;101657.88;5016733;28;20029;-50
2022/06/18 04:38:18;;;;;;;13.88;7.30;;;;;;;20.44;81.70;101661.84;5016008;28;20184;-51
2022/06/18 04:40:44;;;;;;;14.52;7.47;;;;;;;20.43;83.30;101662.88;5009733;28;20037;-49
2022/06/18 04:43:09;;;;;;;14.35;7.68;;;;;;;20.53;82.93;101669.78;5016532;28;20025;-52
2022/06/18 04:45:36;;;;;;;13.82;7.47;;;;;;;20.58;81.63;101661.88;5016508;28;20047;-54
2022/06/18 04:48:03;;;;;;;20.55;7.82;;;;;;;20.58;83.33;101662.69;5008082;28;20042;-49
2022/06/18 04:50:33;;;;;;;14.52;7.15;;;;;;;20.64;81.74;101666.50;5014495;28;20058;-52
2022/06/18 04:52:58;;;;;;;19.75;7.18;;;;;;;20.70;82.20;101668.38;5015817;28;20116;-51
2022/06/18 04:55:24;;;;;;;18.67;7.88;;;;;;;20.66;81.48;101673.38;5015254;28;20108;-51
2022/06/18 04:57:49;;;;;;;20.67;7.43;;;;;;;20.69;81.58;101672.13;5014682;28;20128;-51
2022/06/18 05:00:15;;;;;;;17.20;7.45;;;;;;;20.72;81.68;101666.28;5010145;28;20081;-49
2022/06/18 05:02:41;;;;;;;15.70;7.10;;;;;;;20.78;81.06;101672.75;5014979;28;20072;-50
2022/06/18 05:05:12;;;;;;;16.30;7.72;;;;;;;20.79;81.48;101674.41;5013539;28;20053;-51
2022/06/18 05:07:37;;;;;;;;;;;;;;;20.90;79.40;101672.97;5009004;28;20321;-50
2022/06/18 05:10:03;;;;;;;15.63;7.80;;;;;;;20.87;82.30;101674.22;5015207;28;19936;-50
2022/06/18 05:12:29;;;;;;;13.98;7.47;;;;;;;20.94;80.59;101672.31;5014978;28;20025;-48
2022/06/18 05:14:54;;;;;;;19.98;8.38;;;;;;;20.98;81.20;101678.19;5015713;28;20368;-48
2022/06/18 05:17:24;;;;;;;13.32;7.80;;;;;;;21.05;81.61;101676.31;5014067;28;20029;-51
2022/06/18 05:19:50;;;;;;;16.40;8.50;;;;;;;21.07;80.05;101685.06;5013586;28;20458;-51
2022/06/18 05:22:16;;;;;;;15.88;7.85;;;;;;;21.08;81.29;101683.19;5021358;28;20549;-49
2022/06/18 05:24:41;;;;;;;17.15;7.93;;;;;;;21.13;81.28;101683.38;5015976;28;20337;-49
2022/06/18 05:27:21;;;;;;;17.00;8.63;;;;;;;21.12;80.61;101676.28;5026775;28;20026;-49
2022/06/18 05:29:47;;;;;;;13.25;8.02;;;;;;;21.20;80.92;101689.66;5008945;28;20532;-49
2022/06/18 05:32:12;;;;;;;16.10;8.05;;;;;;;21.28;82.13;101694.84;5014175;28;20041;-49
2022/06/18 05:34:37;;;;;;;17.38;7.82;;;;;;;21.30;81.65;101694.63;5014744;28;20475;-52
2022/06/18 05:37:08;;;;;;;12.90;7.97;;;;;;;21.36;80.87;101689.19;5014553;28;20030;-51
2022/06/18 05:39:33;;;;;;;18.20;8.20;;;;;;;21.40;81.20;101701.31;5014933;28;20048;-50
2022/06/18 05:41:58;;;;;;;20.30;8.38;;;;;;;21.45;80.64;101705.28;5014493;28;20502;-53
2022/06/18 05:44:23;;;;;;;18.55;8.18;;;;;;;21.49;83.45;101701.13;5015627;28;20108;-52
2022/06/18 05:46:49;;;;;;;16.35;8.25;;;;;;;21.54;80.59;101701.34;5015138;28;20037;-51
2022/06/18 05:49:14;;;;;;;14.63;8.35;;;;;;;21.59;79.96;101702.34;5013500;28;20025;-50
2022/06/18 05:51:39;;;;;;;17.73;8.32;;;;;;;21.62;80.87;101709.22;5011336;28;20484;-54
2022/06/18 05:54:05;;;;;;;21.75;8.43;;;;;;;21.70;79.27;101700.84;5013211;28;20022;-50
2022/06/18 05:56:30;;;;;;;18.42;7.88;;;;;;;21.74;80.18;101693.09;5014616;28;20025;-51
2022/06/18 05:58:57;;;;;;;28.95;8.13;;;;;;;21.86;78.17;101693.25;5014105;28;20030;-50
2022/06/18 06:01:22;;;;;;;20.13;8.30;;;;;;;21.83;77.43;101683.66;5011044;28;20415;-50
2022/06/18 06:03:47;;;;;;;18.73;8.13;;;;;;;21.89;76.08;101688.22;5013373;28;20025;-49
2022/06/18 06:06:13;;;;;;;22.38;8.70;;;;;;;21.96;76.25;101691.75;5015510;28;20033;-50
2022/06/18 06:08:38;;;;;;;19.55;8.60;;;;;;;22.07;76.53;101687.50;5026541;28;20334;-51
2022/06/18 06:13:47;;;;;;;23.83;9.10;;;;;;;22.12;73.54;101676.81;5014542;28;20132;-50
2022/06/18 06:16:13;;;;;;;18.75;9.00;;;;;;;22.20;75.23;101672.16;5014719;28;20108;-51
2022/06/18 06:18:38;;;;;;;19.33;8.93;;;;;;;22.25;74.31;101673.19;5012062;28;20026;-49
2022/06/18 06:21:03;;;;;;;20.70;9.00;;;;;;;22.39;73.86;101673.13;5013690;28;20415;-51
2022/06/18 06:23:29;;;;;;;23.58;9.73;;;;;;;22.43;73.53;101679.81;5012603;28;20385;-47
2022/06/18 06:25:56;;;;;;;16.10;8.77;;;;;;;22.47;73.94;101678.28;5008676;28;20543;-49
2022/06/18 06:28:24;;;;;;;20.52;8.95;;;;;;;22.60;74.47;101680.09;5012730;28;20044;-49
2022/06/18 06:30:50;;;;;;;21.45;8.60;;;;;;;22.64;73.23;101686.75;5013846;28;20052;-51
2022/06/18 06:33:16;;;;;;;18.00;8.85;;;;;;;22.79;73.04;101679.09;5018564;28;20028;-50
2022/06/18 06:35:43;;;;;;;22.95;9.30;;;;;;;22.87;72.39;101678.00;5014062;28;20100;-51
2022/06/18 06:38:09;;;;;;;22.27;9.70;;;;;;;22.96;71.65;101676.63;5016835;28;20496;-50
2022/06/18 06:40:35;;;;;;;21.17;9.65;;;;;;;22.93;70.38;101677.09;5017238;28;20087;-50
2022/06/18 06:43:01;;;;;;;19.58;9.45;;;;;;;22.96;71.70;101679.38;5017088;28;20052;-50
2022/06/18 06:45:32;;;;;;;22.55;9.05;;;;;;;23.03;73.58;101682.03;5018306;28;20471;-52
2022/06/18 06:47:57;;;;;;;;;;;;;;;23.20;71.38;101676.88;5017246;28;20021;-50
2022/06/18 06:50:25;;;;;;;17.47;9.33;;;;;;;23.19;69.59;101675.22;5017942;28;20395;-49
2022/06/18 06:52:52;;;;;;;25.55;10.02;;;;;;;23.24;69.76;101686.28;5017541;28;20044;-51
2022/06/18 06:58:12;;;;;;;23.38;8.55;;;;;;;23.48;69.70;101679.09;5016673;28;20060;-50
2022/06/18 07:00:51;;;;;;;17.90;8.70;;;;;;;23.61;69.58;101678.94;5018326;28;20033;-50
2022/06/18 07:03:20;;;;;;;24.33;8.20;;;;;;;23.74;69.08;101680.66;5012695;28;20080;-51
2022/06/18 07:05:46;;;;;;;21.70;8.77;;;;;;;23.81;67.80;101683.31;5007138;28;20587;-51
2022/06/18 07:08:12;;;;;;;21.13;8.63;;;;;;;23.88;67.25;101685.97;5016663;28;20217;-51
2022/06/18 07:10:37;;;;;;;19.15;8.40;;;;;;;23.93;67.11;101686.13;5006865;28;20104;-52
2022/06/18 07:13:04;;;;;;;22.85;8.30;;;;;;;24.05;68.56;101689.75;5017347;28;20116;-51
2022/06/18 07:15:30;;;;;;;18.90;7.78;;;;;;;24.19;68.34;101690.41;5018325;28;20071;-51
2022/06/18 07:17:55;;;;;;;20.63;8.70;;;;;;;24.24;68.38;101687.81;5016028;28;20275;-50
2022/06/18 07:20:22;;;;;;;18.40;8.15;;;;;;;24.35;66.80;101692.47;5016586;28;20040;-50
2022/06/18 07:22:47;;;;;;;23.05;8.63;;;;;;;24.48;66.81;101687.88;5017535;28;20446;-50
2022/06/18 07:25:14;;;;;;;19.00;7.85;;;;;;;24.56;65.35;101690.31;5018241;28;20030;-50
2022/06/18 07:27:40;;;;;;;18.45;7.80;;;;;;;24.69;65.08;101689.25;5018387;28;20101;-52
2022/06/18 07:30:08;;;;;;;24.17;8.07;;;;;;;24.69;64.63;101683.78;5017256;28;20053;-47
2022/06/18 07:32:35;;;;;;;27.25;7.32;;;;;;;24.73;63.50;101685.00;5013806;28;20526;-51
2022/06/18 07:35:01;;;;;;;20.58;7.40;;;;;;;24.77;64.78;101686.19;5011117;28;20081;-51
2022/06/18 07:37:28;;;;;;;22.30;7.47;;;;;;;24.88;64.66;101682.63;5016222;28;20018;-47
2022/06/18 07:39:53;;;;;;;22.65;7.00;;;;;;;24.94;64.31;101689.06;5017532;28;20994;-52
2022/06/18 07:42:21;;;;;;;17.00;7.30;;;;;;;25.07;63.08;101677.88;5015577;28;20030;-50
2022/06/18 07:44:46;;;;;;;16.02;6.72;;;;;;;25.19;64.00;101680.63;5012712;28;20032;-51
2022/06/18 07:47:15;;;;;;;16.88;6.95;;;;;;;25.34;64.99;101682.91;5016188;28;20029;-49
2022/06/18 07:49:42;;;;;;;20.60;7.57;;;;;;;25.35;63.39;101676.34;5017309;28;20017;-51
2022/06/18 07:52:07;;;;;;;21.80;7.57;;;;;;;25.39;63.43;101672.06;5015678;28;20482;-52
2022/06/18 07:54:32;;;;;;;17.70;6.90;;;;;;;25.50;61.61;101676.66;5012434;28;20112;-52
2022/06/18 07:56:58;;;;;;;19.08;6.47;;;;;;;25.57;60.90;101676.53;5011377;28;20060;-52
2022/06/18 07:59:23;;;;;;;16.42;7.03;;;;;;;25.54;60.53;101666.06;5015247;28;20369;-50
2022/06/18 08:01:49;;;;;;;23.02;6.93;;;;;;;25.57;60.06;101668.34;5016638;28;20392;-51
2022/06/18 08:04:14;;;;;;;22.33;8.38;;;;;;;25.56;61.76;101663.97;5016618;28;20627;-50
2022/06/18 08:06:40;;;;;;;20.92;8.18;;;;;;;25.59;61.33;101655.25;5014933;28;20087;-50
2022/06/18 08:09:05;;;;;;;20.75;7.78;;;;;;;25.80;61.17;101670.19;5016338;28;20108;-51
2022/06/18 08:11:31;;;;;;;24.65;6.90;;;;;;;25.84;60.37;101662.31;5016659;28;20088;-50
2022/06/18 08:13:58;;;;;;;18.15;7.50;;;;;;;26.04;61.20;101661.91;5016698;28;20029;-51
2022/06/18 08:16:24;;;;;;;19.30;6.72;;;;;;;26.18;59.89;101670.66;5013307;28;20408;-52
2022/06/18 08:18:50;;;;;;;17.85;6.97;;;;;;;26.24;59.07;101661.47;5002494;28;20292;-51
2022/06/18 08:21:25;;;;;;;20.48;7.15;;;;;;;26.31;58.51;101659.38;5017105;28;20017;-51
2022/06/18 08:23:53;;;;;;;30.67;6.85;;;;;;;26.26;58.07;101659.31;5016263;28;20028;-51
2022/06/18 08:26:19;;;;;;;23.40;7.38;;;;;;;26.41;58.91;101653.28;5016322;28;20041;-51
2022/06/18 08:28:45;;;;;;;82.78;9.18;;;;;;;26.54;58.28;101649.34;5014636;28;20013;-52
2022/06/18 08:31:11;;;;;;;16.90;7.00;;;;;;;26.67;59.37;101654.53;5017405;28;20045;-52
2022/06/18 08:33:37;;;;;;;35.72;8.13;;;;;;;26.68;60.00;101639.78;5014701;28;20507;-52
2022/06/18 08:36:06;;;;;;;21.90;7.75;;;;;;;26.76;58.33;101658.50;5016519;28;20116;-63
2022/06/18 08:38:33;;;;;;;27.33;7.30;;;;;;;26.84;57.79;101648.22;5015012;28;20463;-51
2022/06/18 08:41:32;;;;;;;20.17;6.60;;;;;;;27.01;57.82;101654.50;5011849;28;20055;-51
2022/06/18 08:44:14;;;;;;;23.45;8.55;;;;;;;27.08;56.63;101654.34;5014302;28;20033;-51
2022/06/18 08:46:52;;;;;;;18.35;7.13;;;;;;;27.22;57.06;101657.53;5016045;28;20030;-51
2022/06/18 08:49:30;;;;;;;17.08;6.60;;;;;;;27.41;60.67;101656.19;5015462;28;20683;-50
2022/06/18 08:52:14;;;;;;;21.05;5.85;;;;;;;27.42;56.65;101659.75;5008729;28;20573;-51
2022/06/18 08:55:16;;;;;;;16.52;5.90;;;;;;;27.44;56.63;101658.41;5003777;28;20136;-52
2022/06/18 08:58:07;;;;;;;24.02;6.13;;;;;;;27.40;56.60;101662.75;5006535;28;20394;-50
2022/06/18 09:00:53;;;;;;;16.63;5.47;;;;;;;27.39;56.07;101652.03;5016167;28;20029;-52
2022/06/18 09:03:39;;;;;;;18.70;6.40;;;;;;;27.46;55.81;101652.66;5013908;28;20033;-52
2022/06/18 09:06:43;;;;;;;21.88;5.82;;;;;;;27.62;57.82;101657.25;5016131;28;20029;-52
2022/06/18 09:09:30;;;;;;;23.33;6.15;;;;;;;27.82;56.60;101658.59;5016146;28;20029;-52
2022/06/18 09:12:01;;;;;;;21.90;6.70;;;;;;;27.98;56.41;101663.19;5013540;28;20354;-52
2022/06/18 09:14:40;;;;;;;13.00;6.18;;;;;;;28.19;55.38;101669.72;5013254;28;20049;-52
2022/06/18 09:17:23;;;;;;;20.65;6.40;;;;;;;28.35;55.91;101667.13;5014607;28;20021;-52
2022/06/18 09:20:07;;;;;;;24.42;5.82;;;;;;;28.36;55.42;101658.63;5015573;28;20084;-53
2022/06/18 09:22:37;;;;;;;23.67;6.68;;;;;;;28.43;54.30;101661.97;5011862;28;20550;-54
2022/06/18 09:25:10;;;;;;;17.05;5.88;;;;;;;28.59;55.96;101656.63;5010319;28;20443;-50
2022/06/18 09:27:52;;;;;;;19.02;6.03;;;;;;;28.35;53.39;101653.41;5015748;28;20060;-53
2022/06/18 09:30:38;;;;;;;16.35;5.90;;;;;;;28.35;53.63;101648.72;5015541;28;20069;-52
2022/06/18 09:33:48;;;;;;;17.58;5.85;;;;;;;28.53;53.88;101635.66;5014034;28;20540;-52
2022/06/18 09:36:20;;;;;;;27.05;6.93;;;;;;;28.66;51.82;101649.00;5009875;28;20037;-51
2022/06/18 09:38:52;;;;;;;22.17;6.15;;;;;;;28.76;52.30;101651.81;5015031;28;20018;-52
2022/06/18 09:41:22;;;;;;;20.15;6.72;;;;;;;28.86;51.81;101644.75;5015625;28;20173;-51
2022/06/18 09:43:57;;;;;;;17.63;6.07;;;;;;;28.96;50.70;101642.88;5015327;28;20026;-54
2022/06/18 09:46:26;;;;;;;25.00;5.50;;;;;;;28.90;49.20;101638.44;5009945;28;20035;-51
2022/06/18 09:48:52;;;;;;;17.33;5.35;;;;;;;28.86;48.65;101631.81;5014331;28;20025;-51
2022/06/18 09:51:30;;;;;;;14.27;4.78;;;;;;;29.04;48.18;101641.56;5015553;28;20127;-52
2022/06/18 09:54:02;;;;;;;15.73;5.25;;;;;;;29.09;50.00;101630.59;5015039;28;20052;-52
2022/06/18 09:56:32;;;;;;;22.63;5.40;;;;;;;29.25;48.19;101625.19;5011519;28;20032;-52
2022/06/18 09:59:01;;;;;;;23.05;5.95;;;;;;;29.29;48.35;101631.81;5009052;28;20155;-52
2022/06/18 10:01:33;;;;;;;21.58;5.15;;;;;;;29.29;48.91;101627.13;5014368;28;20071;-53
2022/06/18 10:06:55;;;;;;;16.13;5.25;;;;;;;29.42;48.78;101620.31;5014604;28;20116;-53
2022/06/18 10:09:28;;;;;;;20.27;5.80;;;;;;;29.54;51.03;101617.31;5014635;28;20017;-52
2022/06/18 10:11:54;;;;;;;18.23;5.53;;;;;;;29.53;48.71;101615.66;5014581;28;20044;-53
2022/06/18 10:14:22;;;;;;;22.15;5.22;;;;;;;29.50;48.75;101630.78;5015165;28;20472;-51
2022/06/18 10:17:06;;;;;;;16.73;5.38;;;;;;;29.60;47.75;101621.75;5013736;28;20017;-53
2022/06/18 10:20:13;;;;;;;16.58;5.05;;;;;;;29.88;47.79;101625.16;5006641;28;20491;-52
2022/06/18 10:23:00;;;;;;;24.25;6.38;;;;;;;29.86;46.38;101632.84;5003688;28;20466;-52
2022/06/18 10:25:25;;;;;;;19.05;5.15;;;;;;;29.75;46.21;101623.69;5014375;28;20025;-51
2022/06/18 10:28:14;;;;;;;27.75;6.60;;;;;;;29.72;45.94;101621.50;5014406;28;20052;-51
2022/06/18 10:30:42;;;;;;;13.43;5.13;;;;;;;29.90;45.77;101622.94;5015197;28;20128;-53
2022/06/18 10:33:18;;;;;;;19.63;5.57;;;;;;;29.95;46.82;101621.00;5011793;28;20025;-51
2022/06/18 10:36:14;;;;;;;15.60;5.07;;;;;;;30.05;45.54;101611.94;5013504;28;20504;-53
2022/06/18 10:39:00;;;;;;;23.73;5.00;;;;;;;30.04;47.11;101620.47;5014199;28;20065;-52
2022/06/18 10:41:34;;;;;;;23.45;5.60;;;;;;;29.94;45.41;101610.31;5014033;28;20044;-52
2022/06/18 10:44:39;;;;;;;22.90;6.47;;;;;;;30.20;45.81;101607.56;5013506;28;20029;-54
2022/06/18 10:47:11;;;;;;;18.25;6.20;;;;;;;30.28;46.48;101609.78;4988244;28;20443;-51
2022/06/18 10:49:37;;;;;;;16.23;5.47;;;;;;;30.35;44.81;101602.03;5007428;28;20088;-51
2022/06/18 10:52:03;;;;;;;20.80;6.00;;;;;;;30.37;46.39;101601.81;5010518;28;20532;-51
2022/06/18 10:54:36;;;;;;;17.77;5.88;;;;;;;30.45;46.41;101593.81;5014508;28;20174;-52
2022/06/18 10:57:04;;;;;;;21.60;5.97;;;;;;;30.42;44.84;101599.03;5013882;28;20030;-53
2022/06/18 10:59:35;;;;;;;17.73;6.13;;;;;;;30.50;45.28;101593.78;5011796;28;20835;-53
2022/06/18 11:02:23;;;;;;;19.80;5.55;;;;;;;30.70;47.30;101589.34;5011947;28;20025;-54
2022/06/18 11:04:56;;;;;;;21.60;5.75;;;;;;;30.81;45.56;101592.91;4999866;28;20096;-53
2022/06/18 11:07:28;;;;;;;20.05;5.80;;;;;;;30.79;45.17;101589.59;5014024;28;20017;-54
2022/06/18 11:09:55;;;;;;;19.23;5.25;;;;;;;30.86;46.55;101584.63;5012799;28;20120;-54
2022/06/18 11:12:54;;;;;;;19.10;5.50;;;;;;;31.18;45.92;101584.25;5013202;28;20331;-53
2022/06/18 11:15:33;;;;;;;18.55;5.90;;;;;;;31.22;44.88;101576.25;5013975;28;20400;-54
2022/06/18 11:17:58;;;;;;;15.52;5.32;;;;;;;31.29;45.47;101575.94;5012266;28;20037;-54
2022/06/18 11:20:29;;;;;;;19.85;5.47;;;;;;;31.50;46.13;101560.06;5015578;28;20360;-54
2022/06/18 11:23:10;;;;;;;15.18;5.38;;;;;;;31.69;45.36;101563.00;5007682;28;20495;-54
2022/06/18 11:25:41;;;;;;;20.80;5.10;;;;;;;31.81;43.67;101560.75;5016878;28;20565;-54
2022/06/18 11:28:14;;;;;;;17.73;5.22;;;;;;;31.97;45.99;101553.97;5017092;28;20029;-54
2022/06/18 11:30:44;;;;;;;20.55;6.10;;;;;;;31.88;42.86;101550.19;5017320;28;20042;-53
2022/06/18 11:33:23;;;;;;;17.23;6.38;;;;;;;31.83;43.76;101546.66;5012248;28;20373;-53
2022/06/18 11:35:50;;;;;;;18.30;6.10;;;;;;;31.87;42.91;101542.19;5014339;28;20252;-54
2022/06/18 11:38:29;;;;;;;18.63;5.90;;;;;;;31.83;43.91;101543.88;5016526;28;20029;-54
2022/06/18 11:40:58;;;;;;;21.73;6.20;;;;;;;31.75;44.41;101542.53;5016893;28;20771;-53
2022/06/18 11:43:53;;;;;;;19.27;6.63;;;;;;;31.75;43.75;101535.06;5016682;28;20021;-52
2022/06/18 11:46:26;;;;;;;20.88;5.75;;;;;;;31.83;44.55;101528.13;5013932;28;20041;-52
2022/06/18 11:48:59;;;;;;;26.13;6.07;;;;;;;31.82;43.73;101525.66;5016299;28;20025;-53